Pagrindinis puslapis
METAR-TAF:

METAR-TAF

Oro uostai :

Gvidonija, Italija

platuma: 42-00N, ilguma: 012-44E, Aukštis: 88 m

Dabartinis oras

Ataskaita buvo paskelbta 47 minutes, ne 05:55 UTC
Vėjas 2 kt nuo kintamojo kryptimis
Temperatūra 11°C
Drėgmė 94%
Slėgis 1011 hPa
Matomumas 10 km arba daugiau
nėra debesų žemiau 1500 m ir nėra kamuolinių lietaus debesų

METAR: LIRG 010555Z VRB02KT CAVOK 11/10 Q1011 RMK SKC MON NE LIB NC VIS MIN 9999 BLU

Laikas: 08:42 (06:42 UTC)

Prognozė

Ataskaita buvo paskelbta 1 valandą ir 42 minutes, ne 05:00 UTC
Prognozė galioja nuo 01 metu 06 UTC su 01 metu 15 UTC
Vėjas 3 kt nuo kintamojo kryptimis
Matomumas 10 km arba daugiau
nėra debesų žemiau 1500 m ir nėra kamuolinių lietaus debesų
Tapsmas
nuo 01 metu 06 UTC su 01 metu 08 UTC
Matomumas 10 km arba daugiau
Mažai debesys ne aukštis 2000 ft
Išsisklaidę debesys ne aukštis 4000 ft

TAF: LIRG 010500Z 0106/0115 VRB03KT CAVOK BECMG 0106/0108 9999 FEW020 SCT040

Orai ataskaitas ir orų prognozės (METAR, TAF).

turimą stotys yra geltonos ir raudonos taškus žemėlapyje.

Perkelti pele per norėdami pamatyti stoties vardą.

Tada spustelėkite, norėdami matyti oro stebėjimo ir prognozės.

Norėdami pakeisti žemėlapį: spustelėkite ant žalios mygtukų su juodo kryžiaus žemyn,; žalią mygtuką su brūkšneliu, jei norite nutolinti; arba žalių rodyklių gretimoms žemėlapius.


METAR-TAF: